Belle Plaine, Kansas
Current Conditions -  °F | °C
As of 11:58 PM on Saturday 22 Nov 2014 (Local Time) from KIAB Reporting Station
Overcast Overcast  
Wind Chill: 54°   Ceiling: 500
Heat Index: 54°   Visibility: 10mi
Dew Point: 54°   Wind: 16mph
Humidity: 99%   Direction: 160°SSE
Pressure: 29.62"   Gusts: 24mph
Location:  37.39°N, 97.28°W
Report Text: KIAB 230558Z AUTO 16014G21KT 10SM OVC005 12/12 A2962 RMK AO2 SLP030 T01230122 10137 20118 401650059 57023
Loading
Personal Weather Stations






























Interactive Weather Map New forecast layout! Learn more

10-Day Weather Forecast

Advertisements
Track Severe Weather on mobile